ENAT/ALF METAR and TAF weather

Enter ICAO airport designator
Station Type Date Time Source
ENAT METAR 2022/09/28 19:20 UTC NOAA

ENAT 281920Z 16007KT 9999 FEW030 BKN051 09/06 Q1015 RMK WIND 700FT 17013KT


Station Type Date Time Source
ENAT Decoded METAR 2022/09/28 19:20 UTC NOAA

Alta Lufthavn, Norway (ENAT) 69-59N 023-22E 3M
Sep 28, 2022 - 03:20 PM EDT / 2022.09.28 1920 UTC
Wind: from the SSE (160 degrees) at 8 MPH (7 KT):0
Visibility: greater than 7 mile(s):0
Sky conditions: mostly cloudy
Temperature: 48 F (9 C)
Dew Point: 42 F (6 C)
Relative Humidity: 81%
Pressure (altimeter): 29.97 in. Hg (1015 hPa)
ob: ENAT 281920Z 16007KT 9999 FEW030 BKN051 09/06 Q1015 RMK WIND 700FT 17013KT
cycle: 19

Station Type Date Time Source
ENAT TAF 2008/11/30 23:00 UTC NOAA

TAF TAF ENAT 302300Z 3023/0102 22005KT 7000 -SN FEW008 BKN020
TEMPO 3023/0102 3000 -SN VV012

Example: see airport list